CheckWX is a tool to help pilots better visualize weather data.  It is not intended as a substitute for an official pre-flight weather briefing.

04:19:19 UTC

WBKL TAF
Labuan Airport
Labuan, Malaysia
TAF WBKL 262300Z 2700/2800 24008KT 9999 FEW013 TEMPO 2711/2715 5000 TSRA FEW010 FEW015CB SCT035

Jun-27@
00:00 UTC

Jun-27 @ 00:00 UTC

Jun-28@
00:00 UTC

Jun-28 @ 00:00 UTC

TAF WBKL 262300Z 2700/2800 24008KT 9999 FEW013
Wind
  • 240° at 8 KTS
Cloud Levels
  • Few at 1,300' AGL

Jun-27@
11:00 UTC

Jun-27 @ 11:00 UTC

Jun-27@
15:00 UTC

Jun-27 @ 15:00 UTC

TEMPO 2711/2715 5000 TSRA FEW010 FEW015CB SCT035

Temporary

Temporary Changes expected for less than half the time period

Conditions
Thunderstorm, Rain
Cloud Levels
  • Few at 1,000' AGL
  • Few at 1,500' AGL
  • Scattered at 3,500' AGL